Webcam 1 more information Webcam 1


Webcam 2 more information Webcam 2


altri nostri siti meteo:

TortoretometeolidoSito sul meteo

TortoretometeolidoSito sul meteo

Pomeziameteo 1Sito sul meteo

Pomeziameteo DashboardSito sul meteo

Caput FrigorisSito sul meteo

BarcellonameteoSito sul meteo

MeteoipassiSito sul meteo

ViterbometeoSito sul meteo

CastelnuovovomanometeoSito sul meteo



Non è richiesta alcuna attenzione speciale.    Non sono presenti avvisi meteorologici di particolare rilevanza

Report METAR

   
LIBP - Pescara
Dati ricevuti: 24-11-2020 04:50
Coperto  
Coperto  
   Vento: S 7.4 km/h
Vento: S 7.4 km/h
Temperatura: 9°C
Temperatura Vento: 8°C
P.to Rugiada: 6°C
Umidita: 82%
Barometro: 1026 hPa
Nuvole: Coperto
Visibilita: oltre 10 km
dettagli cloud: Coperto 2900 ft
LIBP 240350Z AUTO 21004KT 9999 OVC029/// 09/06 Q1026
LIRZ - Perugia
Dati ricevuti: 24-11-2020 05:20
Molto nuvoloso  
Molto nuvoloso  
   Vento: Variabile 1.9 km/h
Vento: Variabile 1.9 km/h
Temperatura: 2°C
P.to Rugiada: 2°C
Umidita: 100%
Barometro: 1025 hPa
Nuvole: Molto nuvoloso
dettagli cloud: Molto nuvoloso 20000 ft
LIRZ 240420Z AUTO VRB01KT //// // BKN200/// 02/02 Q1025
LIQN - Rieti
Dati ricevuti: 23-11-2020 16:50
DATI Obsoleti
Sereno  
Sereno  
   Vento: Variabile 1.9 km/h
Vento: Variabile 1.9 km/h
Temperatura: 12°C
P.to Rugiada: 6°C
Umidita: 67%
Barometro: 1023 hPa
Visibilita: oltre 10 km
dettagli cloud: Sereno
LIQN 231550Z VRB01KT CAVOK 12/06 Q1023
LIPY - Falconara
Dati ricevuti: 24-11-2020 05:20
Molto nuvoloso  
Molto nuvoloso  
   Vento: S 7.4 km/h
Vento: S 7.4 km/h
Temperatura: 8°C
Temperatura Vento: 7°C
P.to Rugiada: 7°C
Umidita: 93%
Barometro: 1026 hPa
Nuvole: Molto nuvoloso
Visibilita: oltre 10 km
dettagli cloud: Molto nuvoloso 2500 ft,
Molto nuvoloso 22000 ft
LIPY 240420Z AUTO 21004KT 9999 BKN025/// BKN220/// 08/07 Q1026
  

Script sviluppato da  Saratoga-weather.org Adattato per il modello da  Weerstation Leuven

Potete trovare le nostre info meteo anche a:

European Weather Network

Weather Underground

AWEKAS

Citizen Weather Observer Program (CWOP)

HAMweather, WeatherForYou, PWS Weather

Strumentazione usata:

Stazione meteo
Davis VP2

Programma gestore dati meteo
WVIEW

Server per i dati meteo
My Computer

Provider
My provider

Davis VP2

WVIEW

My Computer

My provider